sensor_id;sensor_type;location;lat;lon;timestamp;P1;durP1;ratioP1;P2;durP2;ratioP2
44456;SDS011;30159;49.316;8.558;2023-09-19T00:01:38;0.77;;;0.50;;
44456;SDS011;30159;49.316;8.558;2023-09-19T00:04:07;0.70;;;0.53;;
44456;SDS011;30159;49.316;8.558;2023-09-19T00:06:35;0.70;;;0.70;;
44456;SDS011;30159;49.316;8.558;2023-09-19T00:09:03;1.20;;;0.70;;
44456;SDS011;30159;49.316;8.558;2023-09-19T00:11:35;0.93;;;0.60;;
44456;SDS011;30159;49.316;8.558;2023-09-19T00:14:01;0.67;;;0.67;;
44456;SDS011;30159;49.316;8.558;2023-09-19T00:16:30;0.80;;;0.60;;
44456;SDS011;30159;49.316;8.558;2023-09-19T00:18:58;0.70;;;0.50;;
44456;SDS011;30159;49.316;8.558;2023-09-19T00:21:26;0.70;;;0.50;;
44456;SDS011;30159;49.316;8.558;2023-09-19T00:23:53;0.67;;;0.60;;
44456;SDS011;30159;49.316;8.558;2023-09-19T00:26:20;0.63;;;0.50;;
44456;SDS011;30159;49.316;8.558;2023-09-19T00:28:47;1.00;;;0.70;;
44456;SDS011;30159;49.316;8.558;2023-09-19T00:31:13;0.70;;;0.50;;
44456;SDS011;30159;49.316;8.558;2023-09-19T00:33:40;0.70;;;0.60;;
44456;SDS011;30159;49.316;8.558;2023-09-19T00:36:07;3.20;;;0.60;;
44456;SDS011;30159;49.316;8.558;2023-09-19T00:38:35;0.60;;;0.40;;
44456;SDS011;30159;49.316;8.558;2023-09-19T00:41:01;0.90;;;0.60;;
44456;SDS011;30159;49.316;8.558;2023-09-19T00:43:28;1.73;;;0.60;;
44456;SDS011;30159;49.316;8.558;2023-09-19T00:45:59;1.10;;;0.70;;
44456;SDS011;30159;49.316;8.558;2023-09-19T00:48:28;0.80;;;0.70;;
44456;SDS011;30159;49.316;8.558;2023-09-19T00:50:57;0.83;;;0.60;;
44456;SDS011;30159;49.316;8.558;2023-09-19T00:53:26;1.00;;;0.70;;
44456;SDS011;30159;49.316;8.558;2023-09-19T00:55:54;1.03;;;0.77;;
44456;SDS011;30159;49.316;8.558;2023-09-19T00:58:21;0.90;;;0.60;;
44456;SDS011;30159;49.316;8.558;2023-09-19T01:00:48;1.07;;;0.90;;
44456;SDS011;30159;49.316;8.558;2023-09-19T01:03:16;0.87;;;0.70;;
44456;SDS011;30159;49.316;8.558;2023-09-19T01:05:43;2.13;;;0.70;;
44456;SDS011;30159;49.316;8.558;2023-09-19T01:08:10;0.70;;;0.60;;
44456;SDS011;30159;49.316;8.558;2023-09-19T01:10:37;0.83;;;0.60;;
44456;SDS011;30159;49.316;8.558;2023-09-19T01:13:21;0.90;;;0.70;;
44456;SDS011;30159;49.316;8.558;2023-09-19T01:15:55;0.70;;;0.60;;
44456;SDS011;30159;49.316;8.558;2023-09-19T01:18:32;2.93;;;0.60;;
44456;SDS011;30159;49.316;8.558;2023-09-19T01:21:06;0.70;;;0.60;;
44456;SDS011;30159;49.316;8.558;2023-09-19T01:23:39;0.70;;;0.60;;
44456;SDS011;30159;49.316;8.558;2023-09-19T01:26:22;0.60;;;0.60;;
44456;SDS011;30159;49.316;8.558;2023-09-19T01:29:17;1.60;;;0.63;;
44456;SDS011;30159;49.316;8.558;2023-09-19T01:32:03;0.70;;;0.50;;
44456;SDS011;30159;49.316;8.558;2023-09-19T01:34:43;0.90;;;0.50;;
44456;SDS011;30159;49.316;8.558;2023-09-19T01:37:12;0.90;;;0.60;;
44456;SDS011;30159;49.316;8.558;2023-09-19T01:39:39;0.80;;;0.60;;
44456;SDS011;30159;49.316;8.558;2023-09-19T01:42:07;0.80;;;0.53;;
44456;SDS011;30159;49.316;8.558;2023-09-19T01:44:44;0.77;;;0.50;;
44456;SDS011;30159;49.316;8.558;2023-09-19T01:47:26;8.50;;;0.60;;
44456;SDS011;30159;49.316;8.558;2023-09-19T01:49:59;0.80;;;0.57;;
44456;SDS011;30159;49.316;8.558;2023-09-19T01:52:36;1.00;;;0.60;;
44456;SDS011;30159;49.316;8.558;2023-09-19T01:55:09;2.30;;;0.73;;
44456;SDS011;30159;49.316;8.558;2023-09-19T01:57:41;1.87;;;0.77;;
44456;SDS011;30159;49.316;8.558;2023-09-19T02:00:12;0.80;;;0.57;;
44456;SDS011;30159;49.316;8.558;2023-09-19T02:02:44;1.00;;;0.57;;
44456;SDS011;30159;49.316;8.558;2023-09-19T02:05:12;1.10;;;0.57;;
44456;SDS011;30159;49.316;8.558;2023-09-19T02:07:39;0.80;;;0.60;;
44456;SDS011;30159;49.316;8.558;2023-09-19T02:10:06;0.60;;;0.50;;
44456;SDS011;30159;49.316;8.558;2023-09-19T02:12:35;0.70;;;0.57;;
44456;SDS011;30159;49.316;8.558;2023-09-19T02:15:03;1.00;;;0.77;;
44456;SDS011;30159;49.316;8.558;2023-09-19T02:17:32;0.73;;;0.50;;
44456;SDS011;30159;49.316;8.558;2023-09-19T02:20:00;0.70;;;0.60;;
44456;SDS011;30159;49.316;8.558;2023-09-19T02:22:27;1.07;;;0.60;;
44456;SDS011;30159;49.316;8.558;2023-09-19T02:24:54;1.13;;;0.70;;
44456;SDS011;30159;49.316;8.558;2023-09-19T02:27:23;1.10;;;0.50;;
44456;SDS011;30159;49.316;8.558;2023-09-19T02:29:50;0.90;;;0.60;;
44456;SDS011;30159;49.316;8.558;2023-09-19T02:32:17;0.60;;;0.50;;
44456;SDS011;30159;49.316;8.558;2023-09-19T02:34:44;1.00;;;0.77;;
44456;SDS011;30159;49.316;8.558;2023-09-19T02:37:12;1.03;;;0.73;;
44456;SDS011;30159;49.316;8.558;2023-09-19T02:39:41;0.80;;;0.60;;
44456;SDS011;30159;49.316;8.558;2023-09-19T02:42:08;0.80;;;0.70;;
44456;SDS011;30159;49.316;8.558;2023-09-19T02:44:34;0.70;;;0.60;;
44456;SDS011;30159;49.316;8.558;2023-09-19T02:47:03;1.23;;;0.50;;
44456;SDS011;30159;49.316;8.558;2023-09-19T02:49:30;1.00;;;0.60;;
44456;SDS011;30159;49.316;8.558;2023-09-19T02:51:57;1.23;;;0.60;;
44456;SDS011;30159;49.316;8.558;2023-09-19T02:54:26;0.90;;;0.70;;
44456;SDS011;30159;49.316;8.558;2023-09-19T02:56:53;1.10;;;0.87;;
44456;SDS011;30159;49.316;8.558;2023-09-19T02:59:22;0.73;;;0.73;;
44456;SDS011;30159;49.316;8.558;2023-09-19T03:01:50;1.13;;;1.00;;
44456;SDS011;30159;49.316;8.558;2023-09-19T03:04:19;0.97;;;0.80;;
44456;SDS011;30159;49.316;8.558;2023-09-19T03:06:46;1.37;;;0.70;;
44456;SDS011;30159;49.316;8.558;2023-09-19T03:09:14;0.90;;;0.80;;
44456;SDS011;30159;49.316;8.558;2023-09-19T03:11:42;1.23;;;1.00;;
44456;SDS011;30159;49.316;8.558;2023-09-19T03:14:11;1.00;;;0.77;;
44456;SDS011;30159;49.316;8.558;2023-09-19T03:16:39;1.07;;;0.87;;
44456;SDS011;30159;49.316;8.558;2023-09-19T03:19:05;1.07;;;0.97;;
44456;SDS011;30159;49.316;8.558;2023-09-19T03:21:32;1.40;;;1.27;;
44456;SDS011;30159;49.316;8.558;2023-09-19T03:24:00;1.17;;;0.87;;
44456;SDS011;30159;49.316;8.558;2023-09-19T03:26:27;1.20;;;1.00;;
44456;SDS011;30159;49.316;8.558;2023-09-19T03:28:56;1.20;;;0.80;;
44456;SDS011;30159;49.316;8.558;2023-09-19T03:31:22;0.83;;;0.80;;
44456;SDS011;30159;49.316;8.558;2023-09-19T03:33:49;1.03;;;0.93;;
44456;SDS011;30159;49.316;8.558;2023-09-19T03:36:16;1.20;;;1.07;;
44456;SDS011;30159;49.316;8.558;2023-09-19T03:38:42;0.70;;;0.70;;
44456;SDS011;30159;49.316;8.558;2023-09-19T03:41:09;0.90;;;0.80;;
44456;SDS011;30159;49.316;8.558;2023-09-19T03:43:39;0.97;;;0.80;;
44456;SDS011;30159;49.316;8.558;2023-09-19T03:46:07;2.23;;;0.80;;
44456;SDS011;30159;49.316;8.558;2023-09-19T03:48:34;0.70;;;0.70;;
44456;SDS011;30159;49.316;8.558;2023-09-19T03:51:00;1.03;;;0.80;;
44456;SDS011;30159;49.316;8.558;2023-09-19T03:53:27;1.17;;;1.00;;
44456;SDS011;30159;49.316;8.558;2023-09-19T03:55:54;3.60;;;0.87;;
44456;SDS011;30159;49.316;8.558;2023-09-19T03:58:20;1.00;;;0.90;;
44456;SDS011;30159;49.316;8.558;2023-09-19T04:00:47;0.93;;;0.80;;
44456;SDS011;30159;49.316;8.558;2023-09-19T04:03:16;1.17;;;0.90;;
44456;SDS011;30159;49.316;8.558;2023-09-19T04:05:45;0.80;;;0.70;;
44456;SDS011;30159;49.316;8.558;2023-09-19T04:08:12;0.70;;;0.70;;
44456;SDS011;30159;49.316;8.558;2023-09-19T04:10:39;1.33;;;0.70;;
44456;SDS011;30159;49.316;8.558;2023-09-19T04:13:08;0.93;;;0.87;;
44456;SDS011;30159;49.316;8.558;2023-09-19T04:15:35;2.40;;;0.90;;
44456;SDS011;30159;49.316;8.558;2023-09-19T04:18:02;0.90;;;0.73;;
44456;SDS011;30159;49.316;8.558;2023-09-19T04:20:30;4.27;;;1.00;;
44456;SDS011;30159;49.316;8.558;2023-09-19T04:22:57;0.97;;;0.87;;
44456;SDS011;30159;49.316;8.558;2023-09-19T04:25:25;0.80;;;0.80;;
44456;SDS011;30159;49.316;8.558;2023-09-19T04:27:51;9.80;;;1.10;;
44456;SDS011;30159;49.316;8.558;2023-09-19T04:30:18;1.00;;;0.90;;
44456;SDS011;30159;49.316;8.558;2023-09-19T04:32:46;3.07;;;0.90;;
44456;SDS011;30159;49.316;8.558;2023-09-19T04:35:15;1.10;;;1.00;;
44456;SDS011;30159;49.316;8.558;2023-09-19T04:37:44;1.20;;;1.00;;
44456;SDS011;30159;49.316;8.558;2023-09-19T04:40:11;1.20;;;0.93;;
44456;SDS011;30159;49.316;8.558;2023-09-19T04:42:40;1.67;;;0.87;;
44456;SDS011;30159;49.316;8.558;2023-09-19T04:45:07;1.03;;;0.93;;
44456;SDS011;30159;49.316;8.558;2023-09-19T04:47:35;1.13;;;1.03;;
44456;SDS011;30159;49.316;8.558;2023-09-19T04:50:04;1.40;;;1.27;;
44456;SDS011;30159;49.316;8.558;2023-09-19T04:52:33;1.10;;;1.00;;
44456;SDS011;30159;49.316;8.558;2023-09-19T04:55:01;1.20;;;1.10;;
44456;SDS011;30159;49.316;8.558;2023-09-19T04:57:29;1.17;;;1.07;;
44456;SDS011;30159;49.316;8.558;2023-09-19T04:59:56;1.10;;;1.00;;
44456;SDS011;30159;49.316;8.558;2023-09-19T05:02:23;2.20;;;1.37;;
44456;SDS011;30159;49.316;8.558;2023-09-19T05:04:50;1.17;;;1.00;;
44456;SDS011;30159;49.316;8.558;2023-09-19T05:07:17;1.60;;;1.10;;
44456;SDS011;30159;49.316;8.558;2023-09-19T05:09:44;1.20;;;1.10;;
44456;SDS011;30159;49.316;8.558;2023-09-19T05:12:12;1.47;;;1.10;;
44456;SDS011;30159;49.316;8.558;2023-09-19T05:14:39;0.90;;;0.80;;
44456;SDS011;30159;49.316;8.558;2023-09-19T05:17:06;1.23;;;1.03;;
44456;SDS011;30159;49.316;8.558;2023-09-19T05:19:33;1.70;;;1.17;;
44456;SDS011;30159;49.316;8.558;2023-09-19T05:22:00;1.30;;;1.20;;
44456;SDS011;30159;49.316;8.558;2023-09-19T05:24:29;1.50;;;1.20;;
44456;SDS011;30159;49.316;8.558;2023-09-19T05:26:56;1.10;;;1.00;;
44456;SDS011;30159;49.316;8.558;2023-09-19T05:29:24;1.67;;;1.33;;
44456;SDS011;30159;49.316;8.558;2023-09-19T05:31:51;1.10;;;1.00;;
44456;SDS011;30159;49.316;8.558;2023-09-19T05:34:19;1.27;;;1.17;;
44456;SDS011;30159;49.316;8.558;2023-09-19T05:36:46;5.63;;;1.20;;
44456;SDS011;30159;49.316;8.558;2023-09-19T05:39:14;1.47;;;1.37;;
44456;SDS011;30159;49.316;8.558;2023-09-19T05:41:41;4.23;;;1.10;;
44456;SDS011;30159;49.316;8.558;2023-09-19T05:44:07;1.60;;;1.30;;
44456;SDS011;30159;49.316;8.558;2023-09-19T05:46:35;1.10;;;1.00;;
44456;SDS011;30159;49.316;8.558;2023-09-19T05:49:04;1.33;;;1.13;;
44456;SDS011;30159;49.316;8.558;2023-09-19T05:51:31;3.27;;;1.30;;
44456;SDS011;30159;49.316;8.558;2023-09-19T05:53:57;3.33;;;1.13;;
44456;SDS011;30159;49.316;8.558;2023-09-19T05:56:24;1.10;;;0.90;;
44456;SDS011;30159;49.316;8.558;2023-09-19T05:58:52;1.67;;;0.97;;
44456;SDS011;30159;49.316;8.558;2023-09-19T06:01:19;2.23;;;1.00;;
44456;SDS011;30159;49.316;8.558;2023-09-19T06:03:47;8.00;;;1.20;;
44456;SDS011;30159;49.316;8.558;2023-09-19T06:06:13;2.23;;;1.00;;
44456;SDS011;30159;49.316;8.558;2023-09-19T06:08:40;1.60;;;1.50;;
44456;SDS011;30159;49.316;8.558;2023-09-19T06:11:09;1.27;;;1.17;;
44456;SDS011;30159;49.316;8.558;2023-09-19T06:13:36;1.40;;;1.30;;
44456;SDS011;30159;49.316;8.558;2023-09-19T06:16:04;3.90;;;1.27;;
44456;SDS011;30159;49.316;8.558;2023-09-19T06:18:31;2.37;;;1.03;;
44456;SDS011;30159;49.316;8.558;2023-09-19T06:21:00;1.87;;;1.10;;
44456;SDS011;30159;49.316;8.558;2023-09-19T06:23:30;1.20;;;1.10;;
44456;SDS011;30159;49.316;8.558;2023-09-19T06:25:57;1.10;;;0.90;;
44456;SDS011;30159;49.316;8.558;2023-09-19T06:28:23;2.40;;;1.10;;
44456;SDS011;30159;49.316;8.558;2023-09-19T06:30:53;1.03;;;0.93;;
44456;SDS011;30159;49.316;8.558;2023-09-19T06:33:20;0.90;;;0.83;;
44456;SDS011;30159;49.316;8.558;2023-09-19T06:35:47;1.30;;;1.10;;
44456;SDS011;30159;49.316;8.558;2023-09-19T06:38:15;1.20;;;1.00;;
44456;SDS011;30159;49.316;8.558;2023-09-19T06:40:44;2.30;;;1.20;;
44456;SDS011;30159;49.316;8.558;2023-09-19T06:43:11;4.70;;;1.10;;
44456;SDS011;30159;49.316;8.558;2023-09-19T06:45:38;1.03;;;0.80;;
44456;SDS011;30159;49.316;8.558;2023-09-19T06:48:05;1.43;;;0.90;;
44456;SDS011;30159;49.316;8.558;2023-09-19T06:50:32;1.07;;;0.97;;
44456;SDS011;30159;49.316;8.558;2023-09-19T06:52:59;2.30;;;0.87;;
44456;SDS011;30159;49.316;8.558;2023-09-19T06:55:28;1.30;;;1.00;;
44456;SDS011;30159;49.316;8.558;2023-09-19T06:57:56;1.20;;;0.97;;
44456;SDS011;30159;49.316;8.558;2023-09-19T07:00:24;1.10;;;1.00;;
44456;SDS011;30159;49.316;8.558;2023-09-19T07:02:57;1.13;;;0.80;;
44456;SDS011;30159;49.316;8.558;2023-09-19T07:05:26;1.20;;;1.10;;
44456;SDS011;30159;49.316;8.558;2023-09-19T07:07:53;1.80;;;0.93;;
44456;SDS011;30159;49.316;8.558;2023-09-19T07:10:20;1.00;;;0.90;;
44456;SDS011;30159;49.316;8.558;2023-09-19T07:12:54;1.00;;;0.90;;
44456;SDS011;30159;49.316;8.558;2023-09-19T07:15:21;1.00;;;0.80;;
44456;SDS011;30159;49.316;8.558;2023-09-19T07:17:50;0.80;;;0.70;;
44456;SDS011;30159;49.316;8.558;2023-09-19T07:20:18;0.90;;;0.70;;
44456;SDS011;30159;49.316;8.558;2023-09-19T07:22:44;1.90;;;0.93;;
44456;SDS011;30159;49.316;8.558;2023-09-19T07:25:11;0.90;;;0.70;;
44456;SDS011;30159;49.316;8.558;2023-09-19T07:27:40;0.80;;;0.70;;
44456;SDS011;30159;49.316;8.558;2023-09-19T07:30:09;1.03;;;0.80;;
44456;SDS011;30159;49.316;8.558;2023-09-19T07:32:36;0.80;;;0.60;;
44456;SDS011;30159;49.316;8.558;2023-09-19T07:35:04;1.20;;;0.80;;
44456;SDS011;30159;49.316;8.558;2023-09-19T07:37:32;0.70;;;0.70;;
44456;SDS011;30159;49.316;8.558;2023-09-19T07:39:59;2.33;;;1.30;;
44456;SDS011;30159;49.316;8.558;2023-09-19T07:42:26;1.07;;;0.90;;
44456;SDS011;30159;49.316;8.558;2023-09-19T07:44:53;1.07;;;0.80;;
44456;SDS011;30159;49.316;8.558;2023-09-19T07:47:21;1.47;;;1.20;;
44456;SDS011;30159;49.316;8.558;2023-09-19T07:49:47;0.80;;;0.77;;
44456;SDS011;30159;49.316;8.558;2023-09-19T07:52:14;0.87;;;0.80;;
44456;SDS011;30159;49.316;8.558;2023-09-19T07:54:41;1.87;;;0.83;;
44456;SDS011;30159;49.316;8.558;2023-09-19T07:57:09;1.93;;;0.90;;
44456;SDS011;30159;49.316;8.558;2023-09-19T07:59:35;0.77;;;0.77;;
44456;SDS011;30159;49.316;8.558;2023-09-19T08:02:03;1.20;;;0.83;;
44456;SDS011;30159;49.316;8.558;2023-09-19T08:04:32;0.80;;;0.70;;
44456;SDS011;30159;49.316;8.558;2023-09-19T08:06:59;1.80;;;0.93;;
44456;SDS011;30159;49.316;8.558;2023-09-19T08:09:28;0.80;;;0.60;;
44456;SDS011;30159;49.316;8.558;2023-09-19T08:11:58;1.00;;;0.77;;
44456;SDS011;30159;49.316;8.558;2023-09-19T08:14:27;5.80;;;0.83;;
44456;SDS011;30159;49.316;8.558;2023-09-19T08:16:56;1.37;;;1.03;;
44456;SDS011;30159;49.316;8.558;2023-09-19T08:19:23;1.00;;;0.90;;
44456;SDS011;30159;49.316;8.558;2023-09-19T08:21:54;0.80;;;0.80;;
44456;SDS011;30159;49.316;8.558;2023-09-19T08:24:23;0.97;;;0.73;;
44456;SDS011;30159;49.316;8.558;2023-09-19T08:26:53;0.93;;;0.80;;
44456;SDS011;30159;49.316;8.558;2023-09-19T08:29:20;0.93;;;0.70;;
44456;SDS011;30159;49.316;8.558;2023-09-19T08:31:52;1.27;;;0.87;;
44456;SDS011;30159;49.316;8.558;2023-09-19T08:34:19;2.00;;;0.70;;
44456;SDS011;30159;49.316;8.558;2023-09-19T08:36:46;0.90;;;0.70;;
44456;SDS011;30159;49.316;8.558;2023-09-19T08:39:14;1.30;;;0.70;;
44456;SDS011;30159;49.316;8.558;2023-09-19T08:41:42;1.13;;;0.80;;
44456;SDS011;30159;49.316;8.558;2023-09-19T08:44:08;1.10;;;0.80;;
44456;SDS011;30159;49.316;8.558;2023-09-19T08:46:35;0.80;;;0.70;;
44456;SDS011;30159;49.316;8.558;2023-09-19T08:49:08;0.80;;;0.70;;
44456;SDS011;30159;49.316;8.558;2023-09-19T08:51:43;0.80;;;0.60;;
44456;SDS011;30159;49.316;8.558;2023-09-19T08:54:14;1.43;;;0.80;;
44456;SDS011;30159;49.316;8.558;2023-09-19T08:56:48;0.80;;;0.50;;
44456;SDS011;30159;49.316;8.558;2023-09-19T08:59:16;2.00;;;0.83;;
44456;SDS011;30159;49.316;8.558;2023-09-19T09:01:49;1.20;;;0.80;;
44456;SDS011;30159;49.316;8.558;2023-09-19T09:04:18;2.70;;;0.80;;
44456;SDS011;30159;49.316;8.558;2023-09-19T09:06:46;0.80;;;0.67;;
44456;SDS011;30159;49.316;8.558;2023-09-19T09:09:19;0.70;;;0.50;;
44456;SDS011;30159;49.316;8.558;2023-09-19T09:11:47;0.90;;;0.60;;
44456;SDS011;30159;49.316;8.558;2023-09-19T09:14:15;1.10;;;0.80;;
44456;SDS011;30159;49.316;8.558;2023-09-19T09:16:42;1.40;;;1.00;;
44456;SDS011;30159;49.316;8.558;2023-09-19T09:19:10;2.30;;;1.00;;
44456;SDS011;30159;49.316;8.558;2023-09-19T09:21:38;0.83;;;0.80;;
44456;SDS011;30159;49.316;8.558;2023-09-19T09:26:59;1.50;;;0.77;;
44456;SDS011;30159;49.316;8.558;2023-09-19T09:32:21;0.70;;;0.60;;
44456;SDS011;30159;49.316;8.558;2023-09-19T09:34:54;1.10;;;0.70;;
44456;SDS011;30159;49.316;8.558;2023-09-19T09:37:22;2.60;;;0.80;;
44456;SDS011;30159;49.316;8.558;2023-09-19T09:39:51;1.60;;;0.87;;
44456;SDS011;30159;49.316;8.558;2023-09-19T09:42:31;0.90;;;0.60;;
44456;SDS011;30159;49.316;8.558;2023-09-19T09:47:54;1.47;;;0.77;;
44456;SDS011;30159;49.316;8.558;2023-09-19T09:50:27;0.80;;;0.60;;
44456;SDS011;30159;49.316;8.558;2023-09-19T09:53:02;1.13;;;0.77;;
44456;SDS011;30159;49.316;8.558;2023-09-19T09:55:56;2.90;;;0.90;;
44456;SDS011;30159;49.316;8.558;2023-09-19T09:58:23;1.83;;;1.00;;
44456;SDS011;30159;49.316;8.558;2023-09-19T10:00:54;1.00;;;0.90;;
44456;SDS011;30159;49.316;8.558;2023-09-19T10:03:24;0.77;;;0.67;;
44456;SDS011;30159;49.316;8.558;2023-09-19T10:05:59;0.80;;;0.70;;
44456;SDS011;30159;49.316;8.558;2023-09-19T10:08:34;1.20;;;0.80;;
44456;SDS011;30159;49.316;8.558;2023-09-19T10:11:10;0.70;;;0.70;;
44456;SDS011;30159;49.316;8.558;2023-09-19T10:13:41;1.17;;;0.80;;
44456;SDS011;30159;49.316;8.558;2023-09-19T10:16:11;3.17;;;1.03;;
44456;SDS011;30159;49.316;8.558;2023-09-19T10:18:39;1.07;;;0.70;;
44456;SDS011;30159;49.316;8.558;2023-09-19T10:21:09;2.10;;;0.80;;
44456;SDS011;30159;49.316;8.558;2023-09-19T10:23:37;1.13;;;0.83;;
44456;SDS011;30159;49.316;8.558;2023-09-19T10:26:08;0.93;;;0.73;;
44456;SDS011;30159;49.316;8.558;2023-09-19T10:28:36;2.27;;;0.60;;
44456;SDS011;30159;49.316;8.558;2023-09-19T10:31:03;0.90;;;0.80;;
44456;SDS011;30159;49.316;8.558;2023-09-19T10:33:35;0.70;;;0.60;;
44456;SDS011;30159;49.316;8.558;2023-09-19T10:36:03;2.50;;;0.80;;
44456;SDS011;30159;49.316;8.558;2023-09-19T10:38:31;1.00;;;0.80;;
44456;SDS011;30159;49.316;8.558;2023-09-19T10:41:01;1.30;;;1.00;;
44456;SDS011;30159;49.316;8.558;2023-09-19T10:43:29;1.03;;;0.93;;
44456;SDS011;30159;49.316;8.558;2023-09-19T10:46:01;4.40;;;1.00;;
44456;SDS011;30159;49.316;8.558;2023-09-19T10:48:30;0.70;;;0.60;;
44456;SDS011;30159;49.316;8.558;2023-09-19T10:51:00;1.00;;;0.80;;
44456;SDS011;30159;49.316;8.558;2023-09-19T10:53:40;1.07;;;0.90;;
44456;SDS011;30159;49.316;8.558;2023-09-19T10:56:09;1.70;;;0.83;;
44456;SDS011;30159;49.316;8.558;2023-09-19T10:58:42;1.43;;;0.63;;
44456;SDS011;30159;49.316;8.558;2023-09-19T11:01:11;2.03;;;0.60;;
44456;SDS011;30159;49.316;8.558;2023-09-19T11:03:40;1.20;;;0.70;;
44456;SDS011;30159;49.316;8.558;2023-09-19T11:06:09;1.13;;;0.80;;
44456;SDS011;30159;49.316;8.558;2023-09-19T11:08:59;1.00;;;0.70;;
44456;SDS011;30159;49.316;8.558;2023-09-19T11:11:47;0.90;;;0.77;;
44456;SDS011;30159;49.316;8.558;2023-09-19T11:20:21;1.20;;;0.80;;
44456;SDS011;30159;49.316;8.558;2023-09-19T11:23:17;0.90;;;0.70;;
44456;SDS011;30159;49.316;8.558;2023-09-19T11:25:53;0.97;;;0.73;;
44456;SDS011;30159;49.316;8.558;2023-09-19T11:28:29;1.00;;;0.73;;
44456;SDS011;30159;49.316;8.558;2023-09-19T11:30:57;2.10;;;0.90;;
44456;SDS011;30159;49.316;8.558;2023-09-19T11:33:26;1.90;;;0.90;;
44456;SDS011;30159;49.316;8.558;2023-09-19T11:35:58;0.73;;;0.70;;
44456;SDS011;30159;49.316;8.558;2023-09-19T11:41:37;1.20;;;0.60;;
44456;SDS011;30159;49.316;8.558;2023-09-19T11:47:03;0.73;;;0.60;;
44456;SDS011;30159;49.316;8.558;2023-09-19T11:49:33;0.80;;;0.60;;
44456;SDS011;30159;49.316;8.558;2023-09-19T11:52:02;1.93;;;0.70;;
44456;SDS011;30159;49.316;8.558;2023-09-19T11:54:32;1.10;;;0.90;;
44456;SDS011;30159;49.316;8.558;2023-09-19T11:56:59;1.57;;;0.60;;
44456;SDS011;30159;49.316;8.558;2023-09-19T11:59:27;2.60;;;0.80;;
44456;SDS011;30159;49.316;8.558;2023-09-19T12:01:55;1.03;;;0.80;;
44456;SDS011;30159;49.316;8.558;2023-09-19T12:04:37;0.70;;;0.60;;
44456;SDS011;30159;49.316;8.558;2023-09-19T12:07:06;0.70;;;0.70;;
44456;SDS011;30159;49.316;8.558;2023-09-19T12:09:37;0.90;;;0.67;;
44456;SDS011;30159;49.316;8.558;2023-09-19T12:12:06;0.83;;;0.70;;
44456;SDS011;30159;49.316;8.558;2023-09-19T12:14:34;0.80;;;0.60;;
44456;SDS011;30159;49.316;8.558;2023-09-19T12:17:01;0.80;;;0.70;;
44456;SDS011;30159;49.316;8.558;2023-09-19T12:19:28;1.57;;;0.60;;
44456;SDS011;30159;49.316;8.558;2023-09-19T12:21:57;0.77;;;0.60;;
44456;SDS011;30159;49.316;8.558;2023-09-19T12:24:29;1.43;;;0.67;;
44456;SDS011;30159;49.316;8.558;2023-09-19T12:26:59;3.13;;;0.50;;
44456;SDS011;30159;49.316;8.558;2023-09-19T12:29:30;0.77;;;0.67;;
44456;SDS011;30159;49.316;8.558;2023-09-19T12:31:57;3.40;;;0.80;;
44456;SDS011;30159;49.316;8.558;2023-09-19T12:34:29;0.80;;;0.80;;
44456;SDS011;30159;49.316;8.558;2023-09-19T12:39:52;1.10;;;0.90;;
44456;SDS011;30159;49.316;8.558;2023-09-19T12:42:40;0.70;;;0.70;;
44456;SDS011;30159;49.316;8.558;2023-09-19T12:45:07;0.70;;;0.70;;
44456;SDS011;30159;49.316;8.558;2023-09-19T12:47:34;0.80;;;0.80;;
44456;SDS011;30159;49.316;8.558;2023-09-19T12:50:11;0.90;;;0.70;;
44456;SDS011;30159;49.316;8.558;2023-09-19T12:52:45;0.90;;;0.80;;
44456;SDS011;30159;49.316;8.558;2023-09-19T12:55:20;0.80;;;0.70;;
44456;SDS011;30159;49.316;8.558;2023-09-19T12:58:02;1.57;;;0.80;;
44456;SDS011;30159;49.316;8.558;2023-09-19T13:00:36;0.93;;;0.60;;
44456;SDS011;30159;49.316;8.558;2023-09-19T13:03:11;1.70;;;0.83;;
44456;SDS011;30159;49.316;8.558;2023-09-19T13:05:47;0.73;;;0.50;;
44456;SDS011;30159;49.316;8.558;2023-09-19T13:08:19;1.20;;;0.70;;
44456;SDS011;30159;49.316;8.558;2023-09-19T13:13:38;0.67;;;0.60;;
44456;SDS011;30159;49.316;8.558;2023-09-19T13:16:09;1.00;;;0.67;;
44456;SDS011;30159;49.316;8.558;2023-09-19T13:18:43;1.10;;;0.93;;
44456;SDS011;30159;49.316;8.558;2023-09-19T13:21:15;0.80;;;0.53;;
44456;SDS011;30159;49.316;8.558;2023-09-19T13:23:50;0.90;;;0.60;;
44456;SDS011;30159;49.316;8.558;2023-09-19T13:26:18;0.90;;;0.70;;
44456;SDS011;30159;49.316;8.558;2023-09-19T13:28:45;1.67;;;0.50;;
44456;SDS011;30159;49.316;8.558;2023-09-19T13:31:13;0.67;;;0.50;;
44456;SDS011;30159;49.316;8.558;2023-09-19T13:33:42;1.40;;;0.80;;
44456;SDS011;30159;49.316;8.558;2023-09-19T13:36:10;0.80;;;0.60;;
44456;SDS011;30159;49.316;8.558;2023-09-19T13:38:37;0.80;;;0.60;;
44456;SDS011;30159;49.316;8.558;2023-09-19T13:41:05;1.33;;;0.60;;
44456;SDS011;30159;49.316;8.558;2023-09-19T13:43:31;1.33;;;0.60;;
44456;SDS011;30159;49.316;8.558;2023-09-19T13:45:58;0.70;;;0.60;;
44456;SDS011;30159;49.316;8.558;2023-09-19T13:48:25;0.90;;;0.60;;
44456;SDS011;30159;49.316;8.558;2023-09-19T13:50:51;0.70;;;0.70;;
44456;SDS011;30159;49.316;8.558;2023-09-19T13:53:18;1.00;;;0.80;;
44456;SDS011;30159;49.316;8.558;2023-09-19T13:55:45;0.90;;;0.60;;
44456;SDS011;30159;49.316;8.558;2023-09-19T13:58:14;0.70;;;0.60;;
44456;SDS011;30159;49.316;8.558;2023-09-19T14:00:41;0.90;;;0.70;;
44456;SDS011;30159;49.316;8.558;2023-09-19T14:03:08;1.00;;;0.80;;
44456;SDS011;30159;49.316;8.558;2023-09-19T14:05:35;1.30;;;0.60;;
44456;SDS011;30159;49.316;8.558;2023-09-19T14:08:03;0.90;;;0.70;;
44456;SDS011;30159;49.316;8.558;2023-09-19T14:10:30;0.80;;;0.60;;
44456;SDS011;30159;49.316;8.558;2023-09-19T14:12:57;0.80;;;0.73;;
44456;SDS011;30159;49.316;8.558;2023-09-19T14:15:26;0.70;;;0.60;;
44456;SDS011;30159;49.316;8.558;2023-09-19T14:17:55;0.80;;;0.70;;
44456;SDS011;30159;49.316;8.558;2023-09-19T14:20:24;1.00;;;0.90;;
44456;SDS011;30159;49.316;8.558;2023-09-19T14:22:52;0.90;;;0.67;;
44456;SDS011;30159;49.316;8.558;2023-09-19T14:25:19;0.70;;;0.60;;
44456;SDS011;30159;49.316;8.558;2023-09-19T14:27:46;2.40;;;0.60;;
44456;SDS011;30159;49.316;8.558;2023-09-19T14:30:13;0.70;;;0.60;;
44456;SDS011;30159;49.316;8.558;2023-09-19T14:32:41;0.93;;;0.70;;
44456;SDS011;30159;49.316;8.558;2023-09-19T14:35:08;1.90;;;0.70;;
44456;SDS011;30159;49.316;8.558;2023-09-19T14:37:35;0.70;;;0.60;;
44456;SDS011;30159;49.316;8.558;2023-09-19T14:40:04;1.00;;;0.77;;
44456;SDS011;30159;49.316;8.558;2023-09-19T14:42:34;1.47;;;0.90;;
44456;SDS011;30159;49.316;8.558;2023-09-19T14:45:03;0.67;;;0.60;;
44456;SDS011;30159;49.316;8.558;2023-09-19T14:47:31;0.90;;;0.80;;
44456;SDS011;30159;49.316;8.558;2023-09-19T14:50:00;0.60;;;0.50;;
44456;SDS011;30159;49.316;8.558;2023-09-19T14:52:31;0.87;;;0.70;;
44456;SDS011;30159;49.316;8.558;2023-09-19T14:54:58;1.33;;;0.67;;
44456;SDS011;30159;49.316;8.558;2023-09-19T14:57:25;0.90;;;0.70;;
44456;SDS011;30159;49.316;8.558;2023-09-19T14:59:52;0.90;;;0.80;;
44456;SDS011;30159;49.316;8.558;2023-09-19T15:02:19;0.70;;;0.70;;
44456;SDS011;30159;49.316;8.558;2023-09-19T15:04:46;0.90;;;0.67;;
44456;SDS011;30159;49.316;8.558;2023-09-19T15:07:14;2.40;;;0.57;;
44456;SDS011;30159;49.316;8.558;2023-09-19T15:09:41;1.27;;;0.60;;
44456;SDS011;30159;49.316;8.558;2023-09-19T15:12:08;0.70;;;0.60;;
44456;SDS011;30159;49.316;8.558;2023-09-19T15:14:39;0.70;;;0.60;;
44456;SDS011;30159;49.316;8.558;2023-09-19T15:17:06;3.03;;;0.70;;
44456;SDS011;30159;49.316;8.558;2023-09-19T15:19:32;0.70;;;0.60;;
44456;SDS011;30159;49.316;8.558;2023-09-19T15:21:59;0.83;;;0.50;;
44456;SDS011;30159;49.316;8.558;2023-09-19T15:24:27;0.70;;;0.60;;
44456;SDS011;30159;49.316;8.558;2023-09-19T15:26:54;0.70;;;0.60;;